createdAt,value
2022-12-04T02:37:06.419Z,39.78
2022-12-04T02:38:21.137Z,42.17
2022-12-04T02:39:29.034Z,29.85
2022-12-04T02:40:40.169Z,44.47
2022-12-04T02:41:49.815Z,38.72
2022-12-04T02:42:58.590Z,38.17
2022-12-04T02:44:06.677Z,30.48
2022-12-04T02:45:12.116Z,47.42
2022-12-04T02:46:22.574Z,32.92
2022-12-04T02:47:35.388Z,33.38
2022-12-04T02:48:47.343Z,38.20
2022-12-04T03:15:47.445Z,38.53
2022-12-04T05:02:51.764Z,26.00
2022-12-04T05:06:36.317Z,25.83
2022-12-04T05:10:07.054Z,29.65
2022-12-04T05:11:54.169Z,28.20
2022-12-04T05:13:56.533Z,28.67
2022-12-04T05:15:58.147Z,29.27
2022-12-04T05:35:46.766Z,24.35
2022-12-04T05:36:49.754Z,30.05
2022-12-04T05:37:53.405Z,26.90
2022-12-04T05:38:55.858Z,27.17
2022-12-04T05:40:00.633Z,37.40
2022-12-04T05:41:05.148Z,34.50
2022-12-04T05:42:08.561Z,31.50
2022-12-04T05:43:10.973Z,26.38
2022-12-04T05:44:14.419Z,26.42
2022-12-04T05:45:18.070Z,29.98
2022-12-04T05:50:12.134Z,26.15
2022-12-04T05:51:14.630Z,35.80
2022-12-04T05:52:18.363Z,33.20
2022-12-04T05:53:20.764Z,29.98
2022-12-04T05:54:27.611Z,27.65
2022-12-04T05:55:31.704Z,30.23
2022-12-04T06:26:27.047Z,38.33
2022-12-04T06:27:31.380Z,30.67
2022-12-04T06:28:35.053Z,39.67
2022-12-04T06:29:37.595Z,38.88
2022-12-04T06:30:41.098Z,41.92
2022-12-04T06:39:30.454Z,37.15
2022-12-04T07:01:21.351Z,29.23
2022-12-04T07:03:13.717Z,40.17
2022-12-04T07:18:16.607Z,28.50
2022-12-04T07:21:00.604Z,34.35
2022-12-04T09:41:12.262Z,28.38
2022-12-04T09:44:22.856Z,20.33
2022-12-04T10:02:22.748Z,27.83
2022-12-04T10:03:32.898Z,23.27
2022-12-04T10:04:36.563Z,21.30
2022-12-04T10:06:03.088Z,24.73
2022-12-04T10:07:14.311Z,20.27
2022-12-04T10:08:31.756Z,25.35
2022-12-04T10:09:55.138Z,23.40
2022-12-04T10:11:11.143Z,23.65
2022-12-04T10:12:30.827Z,21.33
2022-12-04T10:14:17.352Z,26.10
2022-12-04T10:15:32.014Z,24.33
2022-12-04T10:16:48.163Z,23.73
2022-12-04T10:18:23.447Z,25.58
2022-12-04T10:19:33.594Z,21.67
2022-12-04T10:20:52.486Z,20.55
2022-12-04T10:22:07.342Z,31.17
2022-12-04T10:23:26.406Z,19.40
2022-12-04T10:24:43.117Z,24.85
2022-12-04T10:25:46.496Z,23.50
2022-12-04T10:26:49.487Z,22.65
2022-12-04T10:28:03.607Z,24.88
2022-12-04T10:29:14.213Z,24.38
2022-12-04T10:30:22.949Z,25.02
2022-12-04T10:31:26.674Z,24.23
2022-12-04T10:32:33.585Z,25.35
2022-12-04T10:33:43.313Z,27.90
2022-12-04T10:34:50.514Z,24.35
2022-12-04T10:35:56.238Z,22.83
2022-12-04T10:37:03.998Z,23.65
2022-12-04T10:38:15.597Z,23.92
2022-12-04T10:39:35.860Z,30.02
2022-12-04T10:40:46.731Z,23.40
2022-12-04T10:41:55.818Z,23.85
2022-12-04T10:43:13.046Z,27.88
2022-12-04T10:44:17.590Z,24.48
2022-12-04T10:45:26.401Z,23.92
2022-12-04T10:46:45.931Z,22.50
2022-12-04T10:47:52.262Z,23.33
2022-12-04T10:49:05.193Z,21.58
2022-12-04T10:50:17.605Z,25.95
2022-12-04T10:51:36.842Z,29.40
2022-12-04T10:52:41.808Z,28.42
2022-12-04T10:53:49.687Z,21.23
2022-12-04T10:55:01.780Z,25.55
2022-12-04T10:56:12.365Z,25.58
2022-12-04T10:57:16.652Z,24.58
2022-12-04T10:58:27.157Z,23.90
2022-12-04T10:59:55.585Z,24.52
2022-12-04T11:01:14.739Z,22.73
2022-12-04T11:02:22.522Z,23.77
2022-12-04T11:03:30.010Z,27.67
2022-12-04T11:04:36.482Z,24.77
2022-12-04T11:05:53.211Z,22.25
2022-12-04T11:07:04.441Z,24.45
2022-12-04T11:08:14.474Z,23.83
2022-12-04T11:09:24.417Z,22.98
2022-12-04T11:10:34.415Z,24.48
2022-12-04T11:11:36.817Z,32.03
2022-12-04T11:12:40.147Z,29.55
2022-12-04T11:13:42.976Z,26.85
2022-12-04T11:14:47.362Z,31.67
2022-12-04T11:15:52.992Z,29.23
2022-12-04T11:17:06.939Z,25.95
2022-12-04T11:18:19.648Z,29.65
2022-12-04T11:19:25.480Z,28.92
2022-12-04T11:20:31.490Z,30.33
2022-12-04T11:23:37.533Z,26.40
2022-12-04T11:24:42.953Z,28.67
2022-12-04T11:25:48.897Z,33.45
2022-12-04T11:26:54.571Z,25.83
2022-12-04T11:28:02.344Z,30.17
2022-12-04T11:29:06.143Z,29.80
2022-12-04T11:30:15.443Z,28.10
2022-12-04T11:31:25.715Z,27.13
2022-12-04T11:32:35.031Z,26.15
2022-12-04T11:33:42.974Z,26.30
2022-12-04T11:35:10.606Z,24.77
2022-12-04T11:36:25.943Z,27.20
2022-12-04T11:37:32.340Z,25.17
2022-12-04T11:38:38.077Z,28.85
2022-12-04T11:39:48.190Z,25.55
2022-12-04T11:41:05.195Z,27.00
2022-12-04T11:42:33.995Z,28.23
2022-12-04T11:43:38.008Z,26.00
2022-12-04T11:44:50.610Z,24.40
2022-12-04T11:45:59.871Z,23.00
2022-12-04T11:47:10.254Z,33.70
2022-12-04T11:48:26.897Z,26.63
2022-12-04T11:49:44.036Z,28.40
2022-12-04T11:51:58.793Z,25.30
2022-12-04T11:53:19.569Z,28.42
2022-12-04T11:54:37.186Z,24.67
2022-12-04T11:56:19.273Z,27.85
2022-12-04T11:57:31.285Z,26.85
2022-12-04T11:58:57.526Z,26.65
2022-12-04T12:00:10.391Z,23.98
2022-12-04T12:01:31.841Z,26.63
2022-12-04T12:02:45.601Z,28.15
2022-12-04T12:04:06.379Z,25.25
2022-12-04T12:05:32.829Z,23.40
2022-12-04T12:06:38.622Z,23.65
2022-12-04T12:07:51.006Z,26.15
2022-12-04T12:09:07.764Z,29.25
2022-12-04T12:10:18.752Z,26.40
2022-12-04T12:11:34.900Z,26.83
2022-12-04T12:12:51.310Z,25.08
2022-12-04T12:14:08.601Z,25.35
2022-12-04T12:15:25.004Z,23.35
2022-12-04T12:16:37.623Z,23.70
2022-12-04T12:17:47.849Z,22.83
2022-12-04T12:19:08.877Z,28.33
2022-12-04T12:20:21.995Z,23.90
2022-12-04T12:21:26.829Z,24.30
2022-12-04T12:22:47.768Z,24.02
2022-12-04T12:24:05.620Z,20.15
2022-12-04T12:25:19.173Z,24.10
2022-12-04T12:26:25.011Z,26.55
2022-12-04T12:27:47.711Z,26.45
2022-12-04T12:29:18.627Z,28.02
2022-12-04T12:30:24.555Z,26.02
2022-12-04T12:31:41.543Z,27.25
2022-12-04T12:33:06.060Z,27.98
2022-12-04T12:34:13.941Z,23.52
2022-12-04T12:35:29.496Z,26.95
2022-12-04T12:36:43.589Z,24.83
2022-12-04T12:37:51.892Z,29.83
2022-12-04T12:38:57.804Z,24.63
2022-12-04T12:40:07.921Z,28.23
2022-12-04T12:41:13.633Z,28.63
2022-12-04T12:42:22.902Z,27.20
2022-12-04T12:43:30.631Z,28.00
2022-12-04T12:44:45.151Z,30.40
2022-12-04T12:45:54.725Z,28.50
2022-12-04T12:47:11.017Z,26.65
2022-12-04T12:48:26.702Z,28.10
2022-12-04T12:49:36.281Z,30.35
2022-12-04T12:50:44.576Z,26.45
2022-12-04T12:51:52.820Z,27.25
2022-12-04T12:52:58.884Z,28.33
2022-12-04T12:54:13.448Z,26.30
2022-12-04T12:55:23.233Z,25.42
2022-12-04T12:56:33.990Z,24.48
2022-12-04T12:57:40.962Z,20.70
2022-12-04T12:58:51.593Z,20.80
2022-12-04T12:59:59.062Z,30.55
2022-12-04T13:01:09.212Z,23.83
2022-12-04T13:02:27.740Z,27.77
2022-12-04T13:03:42.093Z,28.48
2022-12-04T13:04:50.124Z,28.25
2022-12-04T13:05:57.386Z,31.20
2022-12-04T13:07:12.049Z,26.58
2022-12-04T13:08:21.435Z,30.45
2022-12-04T13:09:29.977Z,27.50
2022-12-04T13:10:39.068Z,29.98
2022-12-04T13:11:44.861Z,30.30
2022-12-04T13:12:53.876Z,27.10
2022-12-04T13:13:59.509Z,33.92
2022-12-04T13:15:02.092Z,26.00
2022-12-04T13:16:10.909Z,27.70
2022-12-04T13:17:19.509Z,27.27
2022-12-04T13:18:28.589Z,26.55
2022-12-04T13:19:37.178Z,29.02
2022-12-04T13:20:46.354Z,30.73
2022-12-04T13:21:57.878Z,30.23
2022-12-04T13:23:15.557Z,26.35
2022-12-04T13:25:02.142Z,26.85
2022-12-04T13:26:18.880Z,26.60
2022-12-04T13:27:33.549Z,22.65
2022-12-04T13:28:47.003Z,24.80
2022-12-04T13:30:09.951Z,27.10
2022-12-04T13:31:25.078Z,23.77
2022-12-04T13:32:59.755Z,25.33
2022-12-04T13:34:43.113Z,24.10
2022-12-04T13:36:11.213Z,24.30
2022-12-04T13:37:32.064Z,26.50
2022-12-04T13:38:55.116Z,26.67
2022-12-04T13:41:26.532Z,18.60
2022-12-04T13:42:29.987Z,19.42
2022-12-04T13:47:45.434Z,20.63
2022-12-04T13:48:49.432Z,22.20
2022-12-04T13:49:56.215Z,25.02
2022-12-04T13:51:09.501Z,22.55
2022-12-04T13:52:28.189Z,20.77
2022-12-04T13:53:48.395Z,22.48
2022-12-04T13:55:12.478Z,22.42
2022-12-04T13:56:29.974Z,24.45
2022-12-04T13:57:33.350Z,23.40
2022-12-04T13:58:36.471Z,24.98
2022-12-04T13:59:41.922Z,23.33
2022-12-04T14:00:44.754Z,22.80
2022-12-04T14:01:51.399Z,25.65
2022-12-04T14:02:58.642Z,27.58
2022-12-04T14:04:02.035Z,25.27
2022-12-04T14:05:07.615Z,29.98
2022-12-04T14:06:23.121Z,21.75
2022-12-04T14:07:32.561Z,21.27
2022-12-04T14:08:39.543Z,22.92
2022-12-04T14:09:49.959Z,22.38
2022-12-04T14:11:02.188Z,27.33
2022-12-04T14:12:11.699Z,24.42
2022-12-04T14:13:21.087Z,25.90
2022-12-04T14:14:27.623Z,24.25
2022-12-04T14:15:33.899Z,22.70
2022-12-04T14:16:39.657Z,24.63
2022-12-04T14:17:43.201Z,26.27
2022-12-04T14:18:48.052Z,21.20
2022-12-04T14:19:54.795Z,23.83
2022-12-04T14:21:05.261Z,24.73
2022-12-04T14:22:28.744Z,22.58
2022-12-04T14:23:42.281Z,21.70
2022-12-04T14:24:45.813Z,21.27
2022-12-04T14:25:48.718Z,24.27
2022-12-04T14:27:11.379Z,22.73
2022-12-04T14:28:27.037Z,24.75
2022-12-04T14:29:40.185Z,31.58
2022-12-04T14:30:45.818Z,25.42
2022-12-04T14:31:49.872Z,25.73
2022-12-04T14:32:56.369Z,25.13
2022-12-04T14:34:01.752Z,24.48
2022-12-04T14:35:06.003Z,22.40
2022-12-04T14:36:15.510Z,22.20
2022-12-04T14:37:32.110Z,22.92
2022-12-04T14:38:34.486Z,25.00
2022-12-04T14:39:44.233Z,22.67
2022-12-04T14:40:51.948Z,24.20
2022-12-04T14:42:07.777Z,25.35
2022-12-04T14:43:18.831Z,26.98
2022-12-04T14:44:27.287Z,26.48
2022-12-04T14:45:58.747Z,24.65
2022-12-04T14:47:16.527Z,27.40
2022-12-04T14:48:33.487Z,23.02
2022-12-04T14:49:46.643Z,23.58
2022-12-04T14:50:58.403Z,24.95
2022-12-04T14:52:10.071Z,28.30
2022-12-04T14:53:25.058Z,25.05
2022-12-04T14:54:37.369Z,24.13
2022-12-04T14:55:52.040Z,24.83
2022-12-04T14:57:12.090Z,21.60
2022-12-04T14:58:31.590Z,36.25
2022-12-04T14:59:45.445Z,26.13
2022-12-04T15:00:51.653Z,26.63
2022-12-04T15:02:06.238Z,28.45
2022-12-04T15:03:15.187Z,27.20
2022-12-04T15:04:30.349Z,24.80
2022-12-04T15:05:45.398Z,26.95
2022-12-04T15:07:00.371Z,23.33
2022-12-04T15:08:13.913Z,24.50
2022-12-04T15:09:47.422Z,21.75
2022-12-04T15:11:10.670Z,24.27
2022-12-04T15:12:34.902Z,25.33
2022-12-04T15:13:58.385Z,26.48
2022-12-04T15:15:20.706Z,24.60
2022-12-04T15:16:35.333Z,29.17
2022-12-04T15:17:47.530Z,25.60
2022-12-04T15:18:58.272Z,29.77
2022-12-04T15:20:23.731Z,29.88
2022-12-04T15:21:42.950Z,31.15
2022-12-04T15:22:48.935Z,28.02
2022-12-04T15:23:52.892Z,29.55
2022-12-04T15:24:59.330Z,31.60
2022-12-04T15:26:14.761Z,31.13
2022-12-04T15:27:32.032Z,34.47
2022-12-04T15:28:43.041Z,40.45
2022-12-04T15:29:49.125Z,32.88
2022-12-04T15:30:55.310Z,34.20
2022-12-04T15:32:08.643Z,31.08
2022-12-04T15:33:21.213Z,40.83
2022-12-04T15:34:31.429Z,36.63
2022-12-04T15:35:36.196Z,38.40
2022-12-04T15:36:47.889Z,35.03
2022-12-04T15:37:50.796Z,37.63
2022-12-04T15:38:54.686Z,33.55
2022-12-04T15:39:58.565Z,37.25
2022-12-04T15:41:05.903Z,39.50
2022-12-04T15:42:17.296Z,36.70
2022-12-04T15:43:41.410Z,37.38
2022-12-04T15:44:57.652Z,40.00
2022-12-04T15:46:17.151Z,41.60
2022-12-04T15:47:22.405Z,41.90
2022-12-04T15:48:27.803Z,46.20
2022-12-04T15:49:32.066Z,43.10
2022-12-04T15:50:40.797Z,40.28
2022-12-04T15:51:49.154Z,41.97
2022-12-04T15:53:14.092Z,43.85
2022-12-04T15:54:24.299Z,43.85
2022-12-04T15:55:29.457Z,39.15
2022-12-04T15:56:32.789Z,38.60
2022-12-04T15:57:38.151Z,46.85
2022-12-04T15:58:41.973Z,42.33
2022-12-04T15:59:49.829Z,43.75
2022-12-04T16:00:58.533Z,44.13
2022-12-04T16:02:21.886Z,42.10
2022-12-04T16:03:29.120Z,47.30
2022-12-04T16:04:44.020Z,39.95
2022-12-04T16:05:49.009Z,40.28
2022-12-04T16:06:53.722Z,40.10
2022-12-04T16:08:09.328Z,45.55
2022-12-04T16:09:22.929Z,37.90
2022-12-04T16:10:28.784Z,43.58
2022-12-04T16:11:35.847Z,43.58
2022-12-04T16:12:38.173Z,40.88
2022-12-04T16:13:41.468Z,37.97
2022-12-04T16:14:45.019Z,40.63
2022-12-04T16:15:47.283Z,44.85
2022-12-04T16:16:53.444Z,46.40
2022-12-04T16:17:56.956Z,36.20
2022-12-04T16:19:00.368Z,37.33
2022-12-04T16:20:06.927Z,40.17
2022-12-04T16:21:16.686Z,40.60
2022-12-04T16:22:24.218Z,38.28
2022-12-04T16:23:27.160Z,34.83
2022-12-04T16:24:32.357Z,35.10
2022-12-04T16:25:35.734Z,37.20
2022-12-04T16:26:38.143Z,38.83
2022-12-04T16:27:41.403Z,36.55
2022-12-04T16:28:44.605Z,31.70
2022-12-04T16:29:48.028Z,38.72
2022-12-04T16:30:51.828Z,35.50
2022-12-04T16:32:02.714Z,35.75
2022-12-04T16:33:05.809Z,33.38
2022-12-04T16:34:10.588Z,36.65
2022-12-04T16:35:18.362Z,39.55
2022-12-04T16:36:21.828Z,38.30
2022-12-04T16:37:25.807Z,39.15
2022-12-04T16:38:29.337Z,31.60
2022-12-04T16:39:36.873Z,28.27
2022-12-04T16:40:43.302Z,33.40
2022-12-04T16:41:46.585Z,30.50
2022-12-04T16:42:48.954Z,34.47
2022-12-04T16:43:56.973Z,30.48
2022-12-04T16:45:00.456Z,30.05
2022-12-04T16:46:03.928Z,33.85
2022-12-04T16:47:09.618Z,29.48
2022-12-04T16:48:11.958Z,30.77
2022-12-04T16:49:15.476Z,34.40
2022-12-04T16:50:19.114Z,28.42
2022-12-04T16:51:25.336Z,31.63
2022-12-04T16:52:28.610Z,31.42
2022-12-04T16:53:31.089Z,33.08
2022-12-04T16:54:34.781Z,28.73
2022-12-04T16:55:40.808Z,25.98
2022-12-04T16:56:53.277Z,29.15
2022-12-04T16:57:55.711Z,28.70
2022-12-04T16:58:59.177Z,23.92
2022-12-04T17:00:02.428Z,27.70
2022-12-04T17:01:07.673Z,30.02
2022-12-04T17:02:19.159Z,31.77
2022-12-04T17:03:27.369Z,27.52
2022-12-04T17:04:31.417Z,29.98
2022-12-04T17:05:35.845Z,25.33
2022-12-04T17:06:39.383Z,23.75
2022-12-04T17:07:42.737Z,22.75
2022-12-04T17:08:46.587Z,24.70
2022-12-04T17:09:50.105Z,23.15
2022-12-04T17:10:52.892Z,25.55
2022-12-04T17:11:56.302Z,21.40
2022-12-04T17:12:58.479Z,23.55
2022-12-04T17:14:02.979Z,21.90
2022-12-04T17:15:06.304Z,26.90
2022-12-04T17:16:13.980Z,22.10
2022-12-04T17:17:18.929Z,22.77
2022-12-04T17:18:22.384Z,21.75
2022-12-04T17:19:26.083Z,20.08
2022-12-04T17:20:30.280Z,20.50
2022-12-04T17:21:32.962Z,23.98
2022-12-04T17:22:36.231Z,21.45
2022-12-04T17:23:38.738Z,19.50
2022-12-04T17:24:49.071Z,21.90
2022-12-04T17:25:54.253Z,27.17
2022-12-04T17:26:58.289Z,19.00
2022-12-04T17:28:00.953Z,22.92
2022-12-04T17:29:04.963Z,17.70
2022-12-04T17:30:09.471Z,19.98
2022-12-04T17:31:17.807Z,22.90
2022-12-04T17:32:21.818Z,18.98
2022-12-04T17:33:25.125Z,17.80
2022-12-04T17:34:28.932Z,22.98
2022-12-04T17:35:33.057Z,21.27
2022-12-04T17:36:39.695Z,20.80
2022-12-04T17:37:43.030Z,19.42
2022-12-04T17:38:45.577Z,23.27
2022-12-04T17:39:49.097Z,26.20
2022-12-04T17:41:00.754Z,22.58
2022-12-04T17:42:03.140Z,22.15
2022-12-04T17:43:08.641Z,25.13
2022-12-04T17:44:12.127Z,25.13
2022-12-04T17:45:14.785Z,21.20
2022-12-04T17:46:21.636Z,22.30
2022-12-04T17:47:26.752Z,23.92
2022-12-04T17:52:40.437Z,23.70
2022-12-04T17:53:44.541Z,27.45
2022-12-04T17:54:49.349Z,24.17
2022-12-04T18:02:36.575Z,23.00
2022-12-04T18:06:17.687Z,21.08
2022-12-04T18:08:34.295Z,20.42
2022-12-04T19:07:56.231Z,24.27
2022-12-04T19:09:15.902Z,21.58
2022-12-04T19:10:33.148Z,23.13
2022-12-04T19:12:11.443Z,20.10
2022-12-04T19:13:38.481Z,20.08
2022-12-04T19:15:47.529Z,18.98
2022-12-04T19:16:55.779Z,21.58
2022-12-04T19:17:58.293Z,19.30
2022-12-04T19:19:02.508Z,21.10
2022-12-04T19:20:39.406Z,21.13
2022-12-04T19:22:05.332Z,20.00
2022-12-04T19:23:13.527Z,23.75
2022-12-04T19:24:28.289Z,20.23
2022-12-04T19:25:35.824Z,20.10
2022-12-04T19:27:35.995Z,22.02
2022-12-04T19:28:39.301Z,24.63
2022-12-04T19:29:42.767Z,21.60
2022-12-04T19:30:46.071Z,24.00
2022-12-04T19:31:48.111Z,23.13
2022-12-04T19:32:51.427Z,23.98
2022-12-04T19:33:56.867Z,25.88
2022-12-04T19:35:00.245Z,21.77
2022-12-04T19:36:04.114Z,21.35
2022-12-04T19:37:07.819Z,24.20
2022-12-04T19:38:12.163Z,26.45
2022-12-04T19:39:15.153Z,22.80
2022-12-04T19:40:17.207Z,23.92
2022-12-04T19:41:22.477Z,23.05
2022-12-04T19:42:25.581Z,24.02
2022-12-04T19:43:28.008Z,25.63
2022-12-04T19:45:54.318Z,22.52
2022-12-04T19:46:57.741Z,22.33
2022-12-04T19:48:00.852Z,25.00
2022-12-04T19:49:07.038Z,25.67
2022-12-04T19:50:10.048Z,27.17
2022-12-04T19:51:14.997Z,23.50
2022-12-04T19:52:18.483Z,23.35
2022-12-04T19:53:21.998Z,22.92
2022-12-04T19:54:25.583Z,26.40
2022-12-04T19:55:28.670Z,23.85
2022-12-04T19:56:32.192Z,23.13
2022-12-04T19:57:35.310Z,23.00
2022-12-04T19:58:37.560Z,22.27
2022-12-04T19:59:45.674Z,23.33
2022-12-04T20:00:49.613Z,23.52
2022-12-04T20:01:52.782Z,24.27
2022-12-04T20:02:54.988Z,21.52
2022-12-04T20:03:58.946Z,23.67
2022-12-04T20:05:02.149Z,25.15
2022-12-04T20:06:05.785Z,26.67
2022-12-04T20:07:09.023Z,27.35
2022-12-04T20:09:16.237Z,23.55
2022-12-04T20:10:20.894Z,27.15
2022-12-04T20:11:24.145Z,26.92
2022-12-04T20:12:26.146Z,23.58
2022-12-04T20:13:29.268Z,24.70
2022-12-04T20:14:31.426Z,23.75
2022-12-04T20:15:36.821Z,23.83
2022-12-04T20:16:39.925Z,22.23
2022-12-04T20:17:43.121Z,24.33
2022-12-04T20:18:45.336Z,19.80
2022-12-04T20:19:48.419Z,22.77
2022-12-04T20:20:55.403Z,22.83
2022-12-04T20:21:59.636Z,22.15
2022-12-04T20:23:01.717Z,22.73
2022-12-04T20:24:06.697Z,19.73
2022-12-04T20:25:10.312Z,21.98
2022-12-04T20:26:15.286Z,21.52
2022-12-04T20:27:19.009Z,22.17
2022-12-04T20:28:21.843Z,21.42
2022-12-04T20:29:24.967Z,20.27
2022-12-04T20:30:29.356Z,20.95
2022-12-04T20:31:33.678Z,21.55
2022-12-04T20:32:36.734Z,19.33
2022-12-04T20:33:38.780Z,19.23
2022-12-04T20:34:43.682Z,20.02
2022-12-04T20:35:46.148Z,20.65
2022-12-04T20:36:50.091Z,23.35
2022-12-04T20:37:53.064Z,19.90
2022-12-04T20:38:58.107Z,19.55
2022-12-04T20:40:02.318Z,21.15
2022-12-04T20:41:07.632Z,18.48
2022-12-04T20:42:09.598Z,17.52
2022-12-04T20:43:12.736Z,18.67
2022-12-04T20:44:18.934Z,24.88
2022-12-04T20:45:22.043Z,21.23
2022-12-04T20:46:27.407Z,23.27
2022-12-04T20:47:30.621Z,21.85
2022-12-04T20:48:32.675Z,18.02
2022-12-04T20:49:35.743Z,19.50
2022-12-04T20:50:39.199Z,21.13
2022-12-04T20:51:44.267Z,19.92
2022-12-04T20:52:47.422Z,19.95
2022-12-04T20:53:50.607Z,20.00
2022-12-04T20:54:53.699Z,20.05
2022-12-04T20:55:56.599Z,22.73
2022-12-04T20:57:01.069Z,16.90
2022-12-04T20:58:03.877Z,18.60
2022-12-04T20:59:08.827Z,18.52
2022-12-04T21:00:13.060Z,19.48
2022-12-04T21:01:16.749Z,18.35
2022-12-04T21:02:19.923Z,16.65
2022-12-04T21:03:23.321Z,18.90
2022-12-04T21:04:26.384Z,21.40
2022-12-04T21:05:29.352Z,19.00
2022-12-04T21:06:35.881Z,20.80
2022-12-04T21:07:39.001Z,17.60
2022-12-04T21:08:53.220Z,18.98
2022-12-04T21:09:56.586Z,15.68
2022-12-04T21:10:58.778Z,17.40
2022-12-04T21:12:03.164Z,18.40
2022-12-04T21:13:23.604Z,20.27
2022-12-04T21:14:45.922Z,17.63
2022-12-04T21:16:04.871Z,17.65
2022-12-04T21:17:09.972Z,16.25
2022-12-04T21:18:11.982Z,17.65
2022-12-04T21:19:16.794Z,19.00
2022-12-04T21:20:20.152Z,17.23
2022-12-04T21:21:22.270Z,18.75
2022-12-04T21:22:25.204Z,16.45
2022-12-04T21:23:28.484Z,18.52
2022-12-04T21:24:36.490Z,17.70
2022-12-04T21:25:39.572Z,16.95
2022-12-04T21:26:41.680Z,19.30
2022-12-04T21:27:45.988Z,18.02
2022-12-04T21:28:48.296Z,19.10
2022-12-04T21:29:51.789Z,17.95
2022-12-04T21:30:59.686Z,15.60
2022-12-04T21:32:03.224Z,16.27
2022-12-04T21:33:05.425Z,17.17
2022-12-04T21:34:11.185Z,19.13
2022-12-04T21:35:14.329Z,17.95
2022-12-04T21:36:16.756Z,17.60
2022-12-04T21:37:20.006Z,16.67
2022-12-04T21:38:22.119Z,17.90
2022-12-04T21:39:25.665Z,14.57
2022-12-04T21:40:27.565Z,17.85
2022-12-04T21:41:50.585Z,17.60
2022-12-04T21:42:54.929Z,16.80
2022-12-04T21:43:57.006Z,17.70
2022-12-04T21:45:00.270Z,17.33
2022-12-04T21:46:09.031Z,17.23
2022-12-04T21:47:12.943Z,16.38
2022-12-04T21:48:16.112Z,16.27
2022-12-04T21:49:21.394Z,18.05
2022-12-04T21:50:25.244Z,16.88
2022-12-04T21:51:55.849Z,14.63
2022-12-04T21:52:50.677Z,18.45
2022-12-04T21:53:54.502Z,17.38
2022-12-04T21:54:58.202Z,16.13
2022-12-04T21:56:00.344Z,17.45
2022-12-04T21:57:03.473Z,16.33
2022-12-04T21:58:07.168Z,17.60
2022-12-04T21:59:10.836Z,17.88
2022-12-04T22:00:15.637Z,17.80
2022-12-04T22:01:20.763Z,16.83
2022-12-04T22:02:24.324Z,19.02
2022-12-04T22:03:26.516Z,19.85
2022-12-04T22:04:29.950Z,19.83
2022-12-04T22:05:32.150Z,22.95
2022-12-04T22:06:36.371Z,19.38
2022-12-04T22:07:39.551Z,19.27
2022-12-04T22:08:42.137Z,18.38
2022-12-04T22:09:45.303Z,18.42
2022-12-04T22:10:47.807Z,17.42
2022-12-04T22:11:51.064Z,16.58
2022-12-04T22:12:53.292Z,17.58
2022-12-04T22:13:57.984Z,18.85
2022-12-04T22:15:00.252Z,18.10
2022-12-04T22:16:04.491Z,18.85
2022-12-04T22:17:07.570Z,18.90
2022-12-04T22:18:10.587Z,15.57
2022-12-04T22:19:14.532Z,18.23
2022-12-04T22:20:17.189Z,16.45
2022-12-04T22:21:21.234Z,18.67
2022-12-04T22:22:32.552Z,17.88
2022-12-04T22:23:39.016Z,19.05
2022-12-04T22:24:54.291Z,18.10
2022-12-04T22:32:01.866Z,17.35
2022-12-04T22:33:48.940Z,16.90
2022-12-04T22:35:02.933Z,18.15
2022-12-04T22:36:45.280Z,19.00
2022-12-04T23:02:20.513Z,19.48
2022-12-04T23:03:22.889Z,18.13
2022-12-04T23:04:26.078Z,21.25
2022-12-04T23:05:28.326Z,18.98
2022-12-04T23:06:33.359Z,18.63
2022-12-04T23:07:35.580Z,20.13
2022-12-04T23:08:39.830Z,17.58
2022-12-04T23:09:42.046Z,20.48
2022-12-04T23:10:45.531Z,20.52
2022-12-04T23:11:51.176Z,19.80
2022-12-04T23:12:54.312Z,18.83
2022-12-04T23:14:00.045Z,17.63
2022-12-04T23:15:03.149Z,19.60
2022-12-04T23:16:09.436Z,16.45
2022-12-04T23:17:13.184Z,20.33
2022-12-04T23:18:16.656Z,18.08
2022-12-04T23:19:21.100Z,17.00
2022-12-04T23:20:23.208Z,17.02
2022-12-04T23:21:26.933Z,19.27
2022-12-04T23:22:30.174Z,19.13
2022-12-04T23:23:33.983Z,16.75
2022-12-04T23:24:38.600Z,18.42
2022-12-04T23:25:41.287Z,21.35
2022-12-04T23:26:46.581Z,20.20
2022-12-04T23:27:48.904Z,17.60
2022-12-04T23:28:52.423Z,17.00
2022-12-04T23:29:54.577Z,20.25
2022-12-04T23:30:58.010Z,19.35
2022-12-04T23:32:00.368Z,18.73
2022-12-04T23:33:03.952Z,21.60
2022-12-04T23:34:07.405Z,20.45
2022-12-04T23:35:11.021Z,21.10
2022-12-04T23:36:13.881Z,20.83
2022-12-04T23:37:17.108Z,21.77
2022-12-04T23:38:19.280Z,16.52
2022-12-04T23:39:22.469Z,18.80
2022-12-04T23:40:24.702Z,18.73
2022-12-04T23:41:29.536Z,20.95
2022-12-04T23:42:32.069Z,16.20
2022-12-04T23:43:36.347Z,18.33
2022-12-04T23:44:40.565Z,16.10
2022-12-04T23:45:44.064Z,16.38
2022-12-04T23:46:46.235Z,18.95
2022-12-04T23:47:49.310Z,18.48
2022-12-04T23:48:51.762Z,17.90
2022-12-04T23:49:56.731Z,16.35
2022-12-04T23:50:59.096Z,17.83
2022-12-04T23:52:02.432Z,17.63
2022-12-04T23:53:04.621Z,17.85
2022-12-04T23:54:07.852Z,17.67
2022-12-04T23:55:10.227Z,17.73
2022-12-04T23:56:16.176Z,16.15
2022-12-04T23:57:18.468Z,18.08
2022-12-04T23:58:21.554Z,17.42
2022-12-04T23:59:23.597Z,17.75
